sensor_id;sensor_type;location;lat;lon;timestamp;P1;durP1;ratioP1;P2;durP2;ratioP2
6985;SDS011;3533;51.246;6.850;2024-01-10T00:01:55;2.57;;;2.37;;
6985;SDS011;3533;51.246;6.850;2024-01-10T00:04:20;2.40;;;2.20;;
6985;SDS011;3533;51.246;6.850;2024-01-10T00:06:46;2.63;;;2.43;;
6985;SDS011;3533;51.246;6.850;2024-01-10T00:09:12;2.50;;;2.30;;
6985;SDS011;3533;51.246;6.850;2024-01-10T00:11:37;2.47;;;2.27;;
6985;SDS011;3533;51.246;6.850;2024-01-10T00:14:03;2.40;;;2.20;;
6985;SDS011;3533;51.246;6.850;2024-01-10T00:16:29;2.47;;;2.37;;
6985;SDS011;3533;51.246;6.850;2024-01-10T00:18:54;2.67;;;2.57;;
6985;SDS011;3533;51.246;6.850;2024-01-10T00:21:20;2.53;;;2.33;;
6985;SDS011;3533;51.246;6.850;2024-01-10T00:23:45;2.60;;;2.40;;
6985;SDS011;3533;51.246;6.850;2024-01-10T00:26:11;3.20;;;3.00;;
6985;SDS011;3533;51.246;6.850;2024-01-10T00:28:36;2.97;;;2.77;;
6985;SDS011;3533;51.246;6.850;2024-01-10T00:31:02;2.40;;;2.30;;
6985;SDS011;3533;51.246;6.850;2024-01-10T00:33:28;2.37;;;2.27;;
6985;SDS011;3533;51.246;6.850;2024-01-10T00:35:53;2.40;;;2.20;;
6985;SDS011;3533;51.246;6.850;2024-01-10T00:38:19;6.80;;;2.87;;
6985;SDS011;3533;51.246;6.850;2024-01-10T00:40:44;2.53;;;2.37;;
6985;SDS011;3533;51.246;6.850;2024-01-10T00:43:10;2.30;;;2.10;;
6985;SDS011;3533;51.246;6.850;2024-01-10T00:45:35;2.37;;;2.23;;
6985;SDS011;3533;51.246;6.850;2024-01-10T00:48:01;2.60;;;2.40;;
6985;SDS011;3533;51.246;6.850;2024-01-10T00:50:27;2.33;;;2.23;;
6985;SDS011;3533;51.246;6.850;2024-01-10T00:52:52;3.03;;;2.77;;
6985;SDS011;3533;51.246;6.850;2024-01-10T00:55:18;2.10;;;2.00;;
6985;SDS011;3533;51.246;6.850;2024-01-10T00:57:43;2.60;;;2.40;;
6985;SDS011;3533;51.246;6.850;2024-01-10T01:00:09;2.73;;;2.53;;
6985;SDS011;3533;51.246;6.850;2024-01-10T01:02:35;2.17;;;2.07;;
6985;SDS011;3533;51.246;6.850;2024-01-10T01:05:04;2.60;;;2.40;;
6985;SDS011;3533;51.246;6.850;2024-01-10T01:07:31;2.60;;;2.40;;
6985;SDS011;3533;51.246;6.850;2024-01-10T01:09:57;3.60;;;2.40;;
6985;SDS011;3533;51.246;6.850;2024-01-10T01:12:23;2.53;;;2.43;;
6985;SDS011;3533;51.246;6.850;2024-01-10T01:14:48;2.60;;;2.40;;
6985;SDS011;3533;51.246;6.850;2024-01-10T01:17:14;2.50;;;2.30;;
6985;SDS011;3533;51.246;6.850;2024-01-10T01:19:39;2.80;;;2.60;;
6985;SDS011;3533;51.246;6.850;2024-01-10T01:22:05;2.13;;;1.97;;
6985;SDS011;3533;51.246;6.850;2024-01-10T01:24:30;2.77;;;2.57;;
6985;SDS011;3533;51.246;6.850;2024-01-10T01:26:56;2.17;;;2.07;;
6985;SDS011;3533;51.246;6.850;2024-01-10T01:29:21;2.40;;;2.23;;
6985;SDS011;3533;51.246;6.850;2024-01-10T01:31:47;2.60;;;2.40;;
6985;SDS011;3533;51.246;6.850;2024-01-10T01:34:13;2.57;;;2.37;;
6985;SDS011;3533;51.246;6.850;2024-01-10T01:36:39;2.27;;;2.10;;
6985;SDS011;3533;51.246;6.850;2024-01-10T01:39:04;2.90;;;2.70;;
6985;SDS011;3533;51.246;6.850;2024-01-10T01:41:30;2.53;;;2.33;;
6985;SDS011;3533;51.246;6.850;2024-01-10T01:43:56;2.27;;;2.17;;
6985;SDS011;3533;51.246;6.850;2024-01-10T01:46:21;3.33;;;3.13;;
6985;SDS011;3533;51.246;6.850;2024-01-10T01:48:48;2.40;;;2.30;;
6985;SDS011;3533;51.246;6.850;2024-01-10T01:51:14;2.20;;;2.10;;
6985;SDS011;3533;51.246;6.850;2024-01-10T01:53:41;2.37;;;2.17;;
6985;SDS011;3533;51.246;6.850;2024-01-10T01:56:09;2.53;;;2.40;;
6985;SDS011;3533;51.246;6.850;2024-01-10T01:58:36;2.53;;;2.33;;
6985;SDS011;3533;51.246;6.850;2024-01-10T02:01:02;2.33;;;2.13;;
6985;SDS011;3533;51.246;6.850;2024-01-10T02:03:30;2.53;;;2.33;;
6985;SDS011;3533;51.246;6.850;2024-01-10T02:05:56;2.40;;;2.20;;
6985;SDS011;3533;51.246;6.850;2024-01-10T02:08:22;2.20;;;2.10;;
6985;SDS011;3533;51.246;6.850;2024-01-10T02:10:48;3.00;;;2.80;;
6985;SDS011;3533;51.246;6.850;2024-01-10T02:13:14;3.00;;;2.57;;
6985;SDS011;3533;51.246;6.850;2024-01-10T02:15:40;1.97;;;1.87;;
6985;SDS011;3533;51.246;6.850;2024-01-10T02:18:06;3.13;;;2.93;;
6985;SDS011;3533;51.246;6.850;2024-01-10T02:20:31;2.33;;;2.23;;
6985;SDS011;3533;51.246;6.850;2024-01-10T02:22:58;2.20;;;2.10;;
6985;SDS011;3533;51.246;6.850;2024-01-10T02:25:23;2.33;;;2.13;;
6985;SDS011;3533;51.246;6.850;2024-01-10T02:27:49;2.30;;;2.10;;
6985;SDS011;3533;51.246;6.850;2024-01-10T02:30:14;2.63;;;2.43;;
6985;SDS011;3533;51.246;6.850;2024-01-10T02:32:40;2.40;;;2.20;;
6985;SDS011;3533;51.246;6.850;2024-01-10T02:35:06;2.63;;;2.43;;
6985;SDS011;3533;51.246;6.850;2024-01-10T02:37:33;2.47;;;2.33;;
6985;SDS011;3533;51.246;6.850;2024-01-10T02:39:58;2.40;;;2.27;;
6985;SDS011;3533;51.246;6.850;2024-01-10T02:42:24;2.10;;;2.00;;
6985;SDS011;3533;51.246;6.850;2024-01-10T02:44:49;2.90;;;2.70;;
6985;SDS011;3533;51.246;6.850;2024-01-10T02:47:15;2.33;;;2.20;;
6985;SDS011;3533;51.246;6.850;2024-01-10T02:49:40;2.30;;;2.10;;
6985;SDS011;3533;51.246;6.850;2024-01-10T02:52:06;1.97;;;1.87;;
6985;SDS011;3533;51.246;6.850;2024-01-10T02:54:31;1.90;;;1.80;;
6985;SDS011;3533;51.246;6.850;2024-01-10T02:56:57;2.37;;;2.27;;
6985;SDS011;3533;51.246;6.850;2024-01-10T02:59:23;2.23;;;2.13;;
6985;SDS011;3533;51.246;6.850;2024-01-10T03:01:48;2.07;;;1.90;;
6985;SDS011;3533;51.246;6.850;2024-01-10T03:04:14;2.20;;;2.10;;
6985;SDS011;3533;51.246;6.850;2024-01-10T03:06:39;2.33;;;2.23;;
6985;SDS011;3533;51.246;6.850;2024-01-10T03:09:05;2.30;;;2.20;;
6985;SDS011;3533;51.246;6.850;2024-01-10T03:11:30;2.50;;;2.30;;
6985;SDS011;3533;51.246;6.850;2024-01-10T03:14:01;2.20;;;2.10;;
6985;SDS011;3533;51.246;6.850;2024-01-10T03:16:31;2.13;;;2.03;;
6985;SDS011;3533;51.246;6.850;2024-01-10T03:18:57;2.27;;;2.10;;
6985;SDS011;3533;51.246;6.850;2024-01-10T03:21:22;2.20;;;2.10;;
6985;SDS011;3533;51.246;6.850;2024-01-10T03:23:50;2.60;;;2.40;;
6985;SDS011;3533;51.246;6.850;2024-01-10T03:26:16;2.20;;;2.10;;
6985;SDS011;3533;51.246;6.850;2024-01-10T03:28:42;2.40;;;2.20;;
6985;SDS011;3533;51.246;6.850;2024-01-10T03:31:10;1.93;;;1.83;;
6985;SDS011;3533;51.246;6.850;2024-01-10T03:33:36;2.37;;;2.27;;
6985;SDS011;3533;51.246;6.850;2024-01-10T03:36:01;2.20;;;2.07;;
6985;SDS011;3533;51.246;6.850;2024-01-10T03:38:27;2.13;;;2.03;;
6985;SDS011;3533;51.246;6.850;2024-01-10T03:40:53;2.43;;;2.23;;
6985;SDS011;3533;51.246;6.850;2024-01-10T03:43:18;2.40;;;2.20;;
6985;SDS011;3533;51.246;6.850;2024-01-10T03:45:44;2.40;;;2.30;;
6985;SDS011;3533;51.246;6.850;2024-01-10T03:48:09;2.20;;;2.00;;
6985;SDS011;3533;51.246;6.850;2024-01-10T03:50:35;2.67;;;2.47;;
6985;SDS011;3533;51.246;6.850;2024-01-10T03:53:00;2.40;;;2.20;;
6985;SDS011;3533;51.246;6.850;2024-01-10T03:55:26;2.50;;;2.40;;
6985;SDS011;3533;51.246;6.850;2024-01-10T03:57:52;2.40;;;2.27;;
6985;SDS011;3533;51.246;6.850;2024-01-10T04:00:17;2.83;;;1.97;;
6985;SDS011;3533;51.246;6.850;2024-01-10T04:02:43;2.40;;;2.20;;
6985;SDS011;3533;51.246;6.850;2024-01-10T04:05:09;2.20;;;2.03;;
6985;SDS011;3533;51.246;6.850;2024-01-10T04:07:36;2.10;;;2.00;;
6985;SDS011;3533;51.246;6.850;2024-01-10T04:10:02;2.00;;;1.90;;
6985;SDS011;3533;51.246;6.850;2024-01-10T04:12:28;2.13;;;2.03;;
6985;SDS011;3533;51.246;6.850;2024-01-10T04:14:54;2.27;;;2.17;;
6985;SDS011;3533;51.246;6.850;2024-01-10T04:17:19;2.20;;;2.10;;
6985;SDS011;3533;51.246;6.850;2024-01-10T04:19:45;2.00;;;1.90;;
6985;SDS011;3533;51.246;6.850;2024-01-10T04:22:10;2.53;;;2.30;;
6985;SDS011;3533;51.246;6.850;2024-01-10T04:24:36;2.20;;;2.00;;
6985;SDS011;3533;51.246;6.850;2024-01-10T04:27:01;2.73;;;2.47;;
6985;SDS011;3533;51.246;6.850;2024-01-10T04:29:27;2.00;;;1.77;;
6985;SDS011;3533;51.246;6.850;2024-01-10T04:31:52;2.33;;;2.23;;
6985;SDS011;3533;51.246;6.850;2024-01-10T04:34:18;2.10;;;2.00;;
6985;SDS011;3533;51.246;6.850;2024-01-10T04:36:44;2.10;;;2.00;;
6985;SDS011;3533;51.246;6.850;2024-01-10T04:39:09;2.07;;;1.97;;
6985;SDS011;3533;51.246;6.850;2024-01-10T04:41:35;2.43;;;2.23;;
6985;SDS011;3533;51.246;6.850;2024-01-10T04:44:01;2.30;;;2.20;;
6985;SDS011;3533;51.246;6.850;2024-01-10T04:46:26;1.93;;;1.83;;
6985;SDS011;3533;51.246;6.850;2024-01-10T04:48:52;2.37;;;2.20;;
6985;SDS011;3533;51.246;6.850;2024-01-10T04:51:17;2.10;;;1.90;;
6985;SDS011;3533;51.246;6.850;2024-01-10T04:53:43;1.87;;;1.77;;
6985;SDS011;3533;51.246;6.850;2024-01-10T04:56:08;2.20;;;2.00;;
6985;SDS011;3533;51.246;6.850;2024-01-10T04:58:34;1.90;;;1.80;;
6985;SDS011;3533;51.246;6.850;2024-01-10T05:01:01;2.00;;;1.90;;
6985;SDS011;3533;51.246;6.850;2024-01-10T05:03:27;2.00;;;1.90;;
6985;SDS011;3533;51.246;6.850;2024-01-10T05:05:52;1.80;;;1.70;;
6985;SDS011;3533;51.246;6.850;2024-01-10T05:08:18;2.00;;;1.90;;
6985;SDS011;3533;51.246;6.850;2024-01-10T05:10:45;2.47;;;2.27;;
6985;SDS011;3533;51.246;6.850;2024-01-10T05:13:11;1.90;;;1.80;;
6985;SDS011;3533;51.246;6.850;2024-01-10T05:15:37;2.23;;;1.83;;
6985;SDS011;3533;51.246;6.850;2024-01-10T05:18:03;2.17;;;2.07;;
6985;SDS011;3533;51.246;6.850;2024-01-10T05:20:29;2.20;;;2.10;;
6985;SDS011;3533;51.246;6.850;2024-01-10T05:22:54;2.50;;;2.10;;
6985;SDS011;3533;51.246;6.850;2024-01-10T05:25:23;2.30;;;2.10;;
6985;SDS011;3533;51.246;6.850;2024-01-10T05:27:49;2.17;;;2.07;;
6985;SDS011;3533;51.246;6.850;2024-01-10T05:30:15;2.10;;;2.00;;
6985;SDS011;3533;51.246;6.850;2024-01-10T05:32:41;2.87;;;2.57;;
6985;SDS011;3533;51.246;6.850;2024-01-10T05:35:08;2.00;;;1.90;;
6985;SDS011;3533;51.246;6.850;2024-01-10T05:37:35;2.80;;;2.60;;
6985;SDS011;3533;51.246;6.850;2024-01-10T05:40:01;2.97;;;2.30;;
6985;SDS011;3533;51.246;6.850;2024-01-10T05:42:27;2.07;;;1.97;;
6985;SDS011;3533;51.246;6.850;2024-01-10T05:44:52;2.10;;;2.00;;
6985;SDS011;3533;51.246;6.850;2024-01-10T05:47:18;2.20;;;2.10;;
6985;SDS011;3533;51.246;6.850;2024-01-10T05:49:43;3.10;;;2.27;;
6985;SDS011;3533;51.246;6.850;2024-01-10T05:52:09;2.07;;;1.97;;
6985;SDS011;3533;51.246;6.850;2024-01-10T05:54:35;2.07;;;1.97;;
6985;SDS011;3533;51.246;6.850;2024-01-10T05:57:00;4.63;;;2.27;;
6985;SDS011;3533;51.246;6.850;2024-01-10T05:59:27;2.30;;;2.20;;
6985;SDS011;3533;51.246;6.850;2024-01-10T06:01:52;2.60;;;2.30;;
6985;SDS011;3533;51.246;6.850;2024-01-10T06:04:18;2.33;;;2.23;;
6985;SDS011;3533;51.246;6.850;2024-01-10T06:06:43;2.27;;;2.10;;
6985;SDS011;3533;51.246;6.850;2024-01-10T06:09:10;1.97;;;1.87;;
6985;SDS011;3533;51.246;6.850;2024-01-10T06:11:40;2.43;;;2.10;;
6985;SDS011;3533;51.246;6.850;2024-01-10T06:14:07;2.10;;;2.00;;
6985;SDS011;3533;51.246;6.850;2024-01-10T06:16:32;1.93;;;1.83;;
6985;SDS011;3533;51.246;6.850;2024-01-10T06:18:58;1.90;;;1.80;;
6985;SDS011;3533;51.246;6.850;2024-01-10T06:21:23;2.07;;;1.97;;
6985;SDS011;3533;51.246;6.850;2024-01-10T06:23:49;2.30;;;2.20;;
6985;SDS011;3533;51.246;6.850;2024-01-10T06:26:14;3.37;;;2.20;;
6985;SDS011;3533;51.246;6.850;2024-01-10T06:28:40;3.17;;;2.03;;
6985;SDS011;3533;51.246;6.850;2024-01-10T06:31:06;5.67;;;3.67;;
6985;SDS011;3533;51.246;6.850;2024-01-10T06:33:31;3.90;;;2.57;;
6985;SDS011;3533;51.246;6.850;2024-01-10T06:35:57;3.10;;;2.10;;
6985;SDS011;3533;51.246;6.850;2024-01-10T06:38:23;3.27;;;2.17;;
6985;SDS011;3533;51.246;6.850;2024-01-10T06:40:49;4.00;;;2.43;;
6985;SDS011;3533;51.246;6.850;2024-01-10T06:43:15;2.97;;;2.60;;
6985;SDS011;3533;51.246;6.850;2024-01-10T06:45:41;2.50;;;2.30;;
6985;SDS011;3533;51.246;6.850;2024-01-10T06:48:07;3.10;;;2.50;;
6985;SDS011;3533;51.246;6.850;2024-01-10T06:50:33;3.03;;;2.60;;
6985;SDS011;3533;51.246;6.850;2024-01-10T06:52:59;3.00;;;2.43;;
6985;SDS011;3533;51.246;6.850;2024-01-10T06:55:24;3.07;;;2.83;;
6985;SDS011;3533;51.246;6.850;2024-01-10T06:57:51;2.33;;;2.13;;
6985;SDS011;3533;51.246;6.850;2024-01-10T07:00:22;2.30;;;2.10;;
6985;SDS011;3533;51.246;6.850;2024-01-10T07:02:48;2.53;;;2.33;;
6985;SDS011;3533;51.246;6.850;2024-01-10T07:05:14;3.87;;;2.47;;
6985;SDS011;3533;51.246;6.850;2024-01-10T07:07:40;4.30;;;2.13;;
6985;SDS011;3533;51.246;6.850;2024-01-10T07:10:06;2.40;;;2.20;;
6985;SDS011;3533;51.246;6.850;2024-01-10T07:12:35;3.57;;;3.27;;
6985;SDS011;3533;51.246;6.850;2024-01-10T07:15:01;3.00;;;2.37;;
6985;SDS011;3533;51.246;6.850;2024-01-10T07:17:29;3.03;;;2.70;;
6985;SDS011;3533;51.246;6.850;2024-01-10T07:19:55;2.50;;;2.30;;
6985;SDS011;3533;51.246;6.850;2024-01-10T07:22:23;2.43;;;2.23;;
6985;SDS011;3533;51.246;6.850;2024-01-10T07:24:49;2.27;;;2.17;;
6985;SDS011;3533;51.246;6.850;2024-01-10T07:27:15;2.83;;;2.63;;
6985;SDS011;3533;51.246;6.850;2024-01-10T07:29:40;4.57;;;3.43;;
6985;SDS011;3533;51.246;6.850;2024-01-10T07:32:06;2.33;;;2.13;;
6985;SDS011;3533;51.246;6.850;2024-01-10T07:34:36;2.50;;;2.30;;
6985;SDS011;3533;51.246;6.850;2024-01-10T07:37:05;2.00;;;1.90;;
6985;SDS011;3533;51.246;6.850;2024-01-10T07:39:30;2.33;;;2.23;;
6985;SDS011;3533;51.246;6.850;2024-01-10T07:41:56;2.50;;;2.30;;
6985;SDS011;3533;51.246;6.850;2024-01-10T07:44:22;2.63;;;2.43;;
6985;SDS011;3533;51.246;6.850;2024-01-10T07:46:49;2.63;;;2.50;;
6985;SDS011;3533;51.246;6.850;2024-01-10T07:49:18;2.53;;;2.33;;
6985;SDS011;3533;51.246;6.850;2024-01-10T07:51:46;2.40;;;2.20;;
6985;SDS011;3533;51.246;6.850;2024-01-10T07:54:12;2.47;;;2.30;;
6985;SDS011;3533;51.246;6.850;2024-01-10T07:56:38;3.13;;;2.63;;
6985;SDS011;3533;51.246;6.850;2024-01-10T07:59:04;2.67;;;2.47;;
6985;SDS011;3533;51.246;6.850;2024-01-10T08:01:30;2.30;;;2.10;;
6985;SDS011;3533;51.246;6.850;2024-01-10T08:03:55;2.30;;;2.20;;
6985;SDS011;3533;51.246;6.850;2024-01-10T08:06:21;2.80;;;2.60;;
6985;SDS011;3533;51.246;6.850;2024-01-10T08:08:47;2.83;;;2.63;;
6985;SDS011;3533;51.246;6.850;2024-01-10T08:11:13;2.13;;;2.03;;
6985;SDS011;3533;51.246;6.850;2024-01-10T08:13:38;2.47;;;2.27;;
6985;SDS011;3533;51.246;6.850;2024-01-10T08:16:04;2.17;;;2.07;;
6985;SDS011;3533;51.246;6.850;2024-01-10T08:18:30;2.93;;;2.40;;
6985;SDS011;3533;51.246;6.850;2024-01-10T08:20:55;2.90;;;2.70;;
6985;SDS011;3533;51.246;6.850;2024-01-10T08:23:21;2.37;;;2.03;;
6985;SDS011;3533;51.246;6.850;2024-01-10T08:25:46;2.60;;;2.40;;
6985;SDS011;3533;51.246;6.850;2024-01-10T08:28:12;2.20;;;2.10;;
6985;SDS011;3533;51.246;6.850;2024-01-10T08:30:38;2.20;;;2.10;;
6985;SDS011;3533;51.246;6.850;2024-01-10T08:33:04;2.77;;;2.57;;
6985;SDS011;3533;51.246;6.850;2024-01-10T08:35:29;2.70;;;2.50;;
6985;SDS011;3533;51.246;6.850;2024-01-10T08:37:55;2.60;;;2.40;;
6985;SDS011;3533;51.246;6.850;2024-01-10T08:40:21;2.57;;;2.37;;
6985;SDS011;3533;51.246;6.850;2024-01-10T08:42:50;2.70;;;2.50;;
6985;SDS011;3533;51.246;6.850;2024-01-10T08:45:17;2.97;;;2.77;;
6985;SDS011;3533;51.246;6.850;2024-01-10T08:47:42;4.40;;;2.30;;
6985;SDS011;3533;51.246;6.850;2024-01-10T08:50:08;2.23;;;2.13;;
6985;SDS011;3533;51.246;6.850;2024-01-10T08:52:35;3.00;;;2.80;;
6985;SDS011;3533;51.246;6.850;2024-01-10T08:55:05;2.33;;;2.23;;
6985;SDS011;3533;51.246;6.850;2024-01-10T08:57:31;2.07;;;1.97;;
6985;SDS011;3533;51.246;6.850;2024-01-10T08:59:56;2.60;;;2.40;;
6985;SDS011;3533;51.246;6.850;2024-01-10T09:02:22;2.80;;;2.60;;
6985;SDS011;3533;51.246;6.850;2024-01-10T09:04:49;2.33;;;2.23;;
6985;SDS011;3533;51.246;6.850;2024-01-10T09:07:15;2.30;;;2.20;;
6985;SDS011;3533;51.246;6.850;2024-01-10T09:09:42;2.23;;;2.10;;
6985;SDS011;3533;51.246;6.850;2024-01-10T09:12:08;2.77;;;2.57;;
6985;SDS011;3533;51.246;6.850;2024-01-10T09:14:34;3.10;;;2.90;;
6985;SDS011;3533;51.246;6.850;2024-01-10T09:16:59;2.83;;;2.73;;
6985;SDS011;3533;51.246;6.850;2024-01-10T09:19:28;2.90;;;2.70;;
6985;SDS011;3533;51.246;6.850;2024-01-10T09:21:54;2.63;;;2.43;;
6985;SDS011;3533;51.246;6.850;2024-01-10T09:24:21;2.73;;;2.43;;
6985;SDS011;3533;51.246;6.850;2024-01-10T09:26:46;2.60;;;2.50;;
6985;SDS011;3533;51.246;6.850;2024-01-10T09:29:12;2.60;;;2.40;;
6985;SDS011;3533;51.246;6.850;2024-01-10T09:31:37;2.60;;;2.40;;
6985;SDS011;3533;51.246;6.850;2024-01-10T09:34:03;2.20;;;2.10;;
6985;SDS011;3533;51.246;6.850;2024-01-10T09:36:28;2.63;;;2.43;;
6985;SDS011;3533;51.246;6.850;2024-01-10T09:38:54;2.53;;;2.43;;
6985;SDS011;3533;51.246;6.850;2024-01-10T09:41:19;3.23;;;2.53;;
6985;SDS011;3533;51.246;6.850;2024-01-10T09:43:45;2.77;;;2.57;;
6985;SDS011;3533;51.246;6.850;2024-01-10T09:46:11;2.30;;;2.20;;
6985;SDS011;3533;51.246;6.850;2024-01-10T09:48:37;2.60;;;2.40;;
6985;SDS011;3533;51.246;6.850;2024-01-10T09:51:03;2.50;;;2.30;;
6985;SDS011;3533;51.246;6.850;2024-01-10T09:53:29;2.53;;;2.43;;
6985;SDS011;3533;51.246;6.850;2024-01-10T09:56:00;2.40;;;2.20;;
6985;SDS011;3533;51.246;6.850;2024-01-10T09:58:29;2.70;;;2.50;;
6985;SDS011;3533;51.246;6.850;2024-01-10T10:00:55;2.93;;;2.63;;
6985;SDS011;3533;51.246;6.850;2024-01-10T10:03:21;2.70;;;2.50;;
6985;SDS011;3533;51.246;6.850;2024-01-10T10:05:47;2.80;;;2.60;;
6985;SDS011;3533;51.246;6.850;2024-01-10T10:08:13;2.43;;;2.33;;
6985;SDS011;3533;51.246;6.850;2024-01-10T10:10:40;2.30;;;2.20;;
6985;SDS011;3533;51.246;6.850;2024-01-10T10:13:10;2.53;;;2.33;;
6985;SDS011;3533;51.246;6.850;2024-01-10T10:15:51;2.70;;;2.50;;
6985;SDS011;3533;51.246;6.850;2024-01-10T10:18:31;2.77;;;2.57;;
6985;SDS011;3533;51.246;6.850;2024-01-10T10:21:06;2.63;;;2.43;;
6985;SDS011;3533;51.246;6.850;2024-01-10T10:23:39;2.97;;;2.77;;
6985;SDS011;3533;51.246;6.850;2024-01-10T10:26:09;2.90;;;2.70;;
6985;SDS011;3533;51.246;6.850;2024-01-10T10:28:44;2.47;;;2.33;;
6985;SDS011;3533;51.246;6.850;2024-01-10T10:31:10;2.80;;;2.47;;
6985;SDS011;3533;51.246;6.850;2024-01-10T10:33:36;2.50;;;2.30;;
6985;SDS011;3533;51.246;6.850;2024-01-10T10:36:02;2.40;;;2.30;;
6985;SDS011;3533;51.246;6.850;2024-01-10T10:38:28;2.60;;;2.40;;
6985;SDS011;3533;51.246;6.850;2024-01-10T10:40:54;2.57;;;2.37;;
6985;SDS011;3533;51.246;6.850;2024-01-10T10:43:21;2.50;;;2.40;;
6985;SDS011;3533;51.246;6.850;2024-01-10T10:45:47;2.83;;;2.53;;
6985;SDS011;3533;51.246;6.850;2024-01-10T10:48:16;2.60;;;2.40;;
6985;SDS011;3533;51.246;6.850;2024-01-10T10:50:44;2.57;;;2.47;;
6985;SDS011;3533;51.246;6.850;2024-01-10T10:53:21;2.97;;;2.77;;
6985;SDS011;3533;51.246;6.850;2024-01-10T10:55:50;3.10;;;2.90;;
6985;SDS011;3533;51.246;6.850;2024-01-10T10:58:17;2.67;;;2.47;;
6985;SDS011;3533;51.246;6.850;2024-01-10T11:00:42;3.00;;;2.80;;
6985;SDS011;3533;51.246;6.850;2024-01-10T11:03:12;2.40;;;2.20;;
6985;SDS011;3533;51.246;6.850;2024-01-10T11:05:39;2.90;;;2.70;;
6985;SDS011;3533;51.246;6.850;2024-01-10T11:08:07;2.73;;;2.53;;
6985;SDS011;3533;51.246;6.850;2024-01-10T11:10:36;2.80;;;2.60;;
6985;SDS011;3533;51.246;6.850;2024-01-10T11:16:08;2.83;;;2.63;;
6985;SDS011;3533;51.246;6.850;2024-01-10T11:18:52;2.70;;;2.60;;
6985;SDS011;3533;51.246;6.850;2024-01-10T11:21:46;3.20;;;3.00;;
6985;SDS011;3533;51.246;6.850;2024-01-10T11:24:24;3.37;;;3.10;;
6985;SDS011;3533;51.246;6.850;2024-01-10T11:27:05;3.13;;;2.93;;
6985;SDS011;3533;51.246;6.850;2024-01-10T11:29:41;2.97;;;2.77;;
6985;SDS011;3533;51.246;6.850;2024-01-10T11:32:07;3.27;;;3.07;;
6985;SDS011;3533;51.246;6.850;2024-01-10T11:34:48;3.50;;;3.30;;
6985;SDS011;3533;51.246;6.850;2024-01-10T11:37:15;2.80;;;2.60;;
6985;SDS011;3533;51.246;6.850;2024-01-10T11:39:41;3.30;;;3.10;;
6985;SDS011;3533;51.246;6.850;2024-01-10T11:42:08;3.17;;;2.97;;
6985;SDS011;3533;51.246;6.850;2024-01-10T11:44:34;2.97;;;2.73;;
6985;SDS011;3533;51.246;6.850;2024-01-10T11:47:11;3.10;;;2.90;;
6985;SDS011;3533;51.246;6.850;2024-01-10T11:49:39;3.20;;;2.93;;
6985;SDS011;3533;51.246;6.850;2024-01-10T11:52:05;3.37;;;3.17;;
6985;SDS011;3533;51.246;6.850;2024-01-10T11:54:38;2.83;;;2.60;;
6985;SDS011;3533;51.246;6.850;2024-01-10T11:57:12;3.07;;;2.87;;
6985;SDS011;3533;51.246;6.850;2024-01-10T11:59:53;2.97;;;2.77;;
6985;SDS011;3533;51.246;6.850;2024-01-10T12:02:20;2.80;;;2.60;;
6985;SDS011;3533;51.246;6.850;2024-01-10T12:04:47;3.20;;;3.00;;
6985;SDS011;3533;51.246;6.850;2024-01-10T12:07:13;3.33;;;3.13;;
6985;SDS011;3533;51.246;6.850;2024-01-10T12:09:40;2.70;;;2.50;;
6985;SDS011;3533;51.246;6.850;2024-01-10T12:12:06;3.20;;;3.00;;
6985;SDS011;3533;51.246;6.850;2024-01-10T12:14:33;3.10;;;2.90;;
6985;SDS011;3533;51.246;6.850;2024-01-10T12:16:59;3.07;;;2.87;;
6985;SDS011;3533;51.246;6.850;2024-01-10T12:19:25;3.03;;;2.83;;
6985;SDS011;3533;51.246;6.850;2024-01-10T12:21:51;2.90;;;2.60;;
6985;SDS011;3533;51.246;6.850;2024-01-10T12:24:17;3.07;;;2.87;;
6985;SDS011;3533;51.246;6.850;2024-01-10T12:26:44;3.47;;;3.27;;
6985;SDS011;3533;51.246;6.850;2024-01-10T12:29:10;3.57;;;3.37;;
6985;SDS011;3533;51.246;6.850;2024-01-10T12:31:36;3.10;;;2.80;;
6985;SDS011;3533;51.246;6.850;2024-01-10T12:34:02;3.10;;;2.90;;
6985;SDS011;3533;51.246;6.850;2024-01-10T12:36:28;2.70;;;2.50;;
6985;SDS011;3533;51.246;6.850;2024-01-10T12:38:53;3.80;;;3.47;;
6985;SDS011;3533;51.246;6.850;2024-01-10T12:41:19;3.20;;;3.00;;
6985;SDS011;3533;51.246;6.850;2024-01-10T12:43:49;3.00;;;2.77;;
6985;SDS011;3533;51.246;6.850;2024-01-10T12:46:17;4.33;;;3.30;;
6985;SDS011;3533;51.246;6.850;2024-01-10T12:48:42;3.67;;;3.37;;
6985;SDS011;3533;51.246;6.850;2024-01-10T12:51:09;3.30;;;3.10;;
6985;SDS011;3533;51.246;6.850;2024-01-10T12:53:39;3.67;;;3.37;;
6985;SDS011;3533;51.246;6.850;2024-01-10T12:56:06;2.93;;;2.73;;
6985;SDS011;3533;51.246;6.850;2024-01-10T12:58:33;3.33;;;3.13;;
6985;SDS011;3533;51.246;6.850;2024-01-10T13:01:01;3.50;;;3.30;;
6985;SDS011;3533;51.246;6.850;2024-01-10T13:03:30;2.83;;;2.63;;
6985;SDS011;3533;51.246;6.850;2024-01-10T13:05:55;2.93;;;2.73;;
6985;SDS011;3533;51.246;6.850;2024-01-10T13:08:21;3.17;;;2.97;;
6985;SDS011;3533;51.246;6.850;2024-01-10T13:10:47;3.37;;;3.17;;
6985;SDS011;3533;51.246;6.850;2024-01-10T13:13:13;3.63;;;3.33;;
6985;SDS011;3533;51.246;6.850;2024-01-10T13:15:46;3.17;;;2.97;;
6985;SDS011;3533;51.246;6.850;2024-01-10T13:18:12;2.87;;;2.67;;
6985;SDS011;3533;51.246;6.850;2024-01-10T13:20:39;3.50;;;3.20;;
6985;SDS011;3533;51.246;6.850;2024-01-10T13:23:05;3.57;;;3.20;;
6985;SDS011;3533;51.246;6.850;2024-01-10T13:25:30;3.30;;;3.10;;
6985;SDS011;3533;51.246;6.850;2024-01-10T13:27:56;3.80;;;3.50;;
6985;SDS011;3533;51.246;6.850;2024-01-10T13:30:22;3.27;;;3.07;;
6985;SDS011;3533;51.246;6.850;2024-01-10T13:32:48;3.73;;;3.43;;
6985;SDS011;3533;51.246;6.850;2024-01-10T13:35:14;3.17;;;2.97;;
6985;SDS011;3533;51.246;6.850;2024-01-10T13:37:41;3.00;;;2.80;;
6985;SDS011;3533;51.246;6.850;2024-01-10T13:40:07;3.67;;;3.47;;
6985;SDS011;3533;51.246;6.850;2024-01-10T13:42:35;3.30;;;3.10;;
6985;SDS011;3533;51.246;6.850;2024-01-10T13:45:02;3.53;;;3.23;;
6985;SDS011;3533;51.246;6.850;2024-01-10T13:47:30;3.40;;;3.20;;
6985;SDS011;3533;51.246;6.850;2024-01-10T13:49:56;3.30;;;3.10;;
6985;SDS011;3533;51.246;6.850;2024-01-10T13:52:21;3.73;;;3.43;;
6985;SDS011;3533;51.246;6.850;2024-01-10T13:54:47;3.10;;;2.90;;
6985;SDS011;3533;51.246;6.850;2024-01-10T13:57:12;3.30;;;3.10;;
6985;SDS011;3533;51.246;6.850;2024-01-10T13:59:38;3.07;;;2.87;;
6985;SDS011;3533;51.246;6.850;2024-01-10T14:02:03;3.43;;;3.20;;
6985;SDS011;3533;51.246;6.850;2024-01-10T14:04:29;3.20;;;3.00;;
6985;SDS011;3533;51.246;6.850;2024-01-10T14:06:55;3.50;;;3.30;;
6985;SDS011;3533;51.246;6.850;2024-01-10T14:09:21;3.03;;;2.83;;
6985;SDS011;3533;51.246;6.850;2024-01-10T14:11:46;3.00;;;2.80;;
6985;SDS011;3533;51.246;6.850;2024-01-10T14:14:14;3.10;;;2.90;;
6985;SDS011;3533;51.246;6.850;2024-01-10T14:16:40;3.20;;;3.00;;
6985;SDS011;3533;51.246;6.850;2024-01-10T14:19:06;3.07;;;2.87;;
6985;SDS011;3533;51.246;6.850;2024-01-10T14:21:32;3.70;;;3.40;;
6985;SDS011;3533;51.246;6.850;2024-01-10T14:23:57;3.30;;;3.03;;
6985;SDS011;3533;51.246;6.850;2024-01-10T14:26:23;5.33;;;3.67;;
6985;SDS011;3533;51.246;6.850;2024-01-10T14:28:51;5.60;;;3.40;;
6985;SDS011;3533;51.246;6.850;2024-01-10T14:31:20;3.43;;;3.23;;
6985;SDS011;3533;51.246;6.850;2024-01-10T14:33:46;4.00;;;3.70;;
6985;SDS011;3533;51.246;6.850;2024-01-10T14:36:12;3.60;;;3.30;;
6985;SDS011;3533;51.246;6.850;2024-01-10T14:38:38;3.83;;;3.63;;
6985;SDS011;3533;51.246;6.850;2024-01-10T14:41:04;3.57;;;3.27;;
6985;SDS011;3533;51.246;6.850;2024-01-10T14:43:31;3.93;;;3.70;;
6985;SDS011;3533;51.246;6.850;2024-01-10T14:45:57;3.43;;;3.23;;
6985;SDS011;3533;51.246;6.850;2024-01-10T14:48:23;3.13;;;2.93;;
6985;SDS011;3533;51.246;6.850;2024-01-10T14:50:48;6.23;;;3.70;;
6985;SDS011;3533;51.246;6.850;2024-01-10T14:53:14;3.80;;;3.57;;
6985;SDS011;3533;51.246;6.850;2024-01-10T14:55:39;3.60;;;3.30;;
6985;SDS011;3533;51.246;6.850;2024-01-10T14:58:05;3.77;;;3.47;;
6985;SDS011;3533;51.246;6.850;2024-01-10T15:00:31;3.60;;;3.30;;
6985;SDS011;3533;51.246;6.850;2024-01-10T15:02:57;7.67;;;3.33;;
6985;SDS011;3533;51.246;6.850;2024-01-10T15:05:23;4.00;;;3.60;;
6985;SDS011;3533;51.246;6.850;2024-01-10T15:07:50;3.90;;;3.60;;
6985;SDS011;3533;51.246;6.850;2024-01-10T15:10:16;3.50;;;3.30;;
6985;SDS011;3533;51.246;6.850;2024-01-10T15:12:42;4.03;;;3.47;;
6985;SDS011;3533;51.246;6.850;2024-01-10T15:15:08;3.80;;;3.37;;